Woodhull, Illinois
Current Conditions -  °F | °C
As of 12:55 PM on Friday 24 Oct 2014 (Local Time) from KGBG Reporting Station
Broken Clouds Broken Clouds  
Wind Chill: 57°   Ceiling: 500
Heat Index: 57°   Visibility: 10mi
Dew Point: 55°   Wind: 9mph
Humidity: 92%   Direction: 180°S
Pressure: 30.04"   Gusts: NA
Location:  41.18°N, 90.32°W
Report Text: KGBG 241755Z AUTO 18008KT 10SM BKN005 BKN009 14/13 A3004 RMK AO2 T01380126 10138 20097
Loading
Personal Weather Stations






























Interactive Weather Map
Tropical Storm Tracking
New forecast layout! Learn more

10-Day Weather Forecast

Advertisements
Track Severe Weather on mobile